^^
Saratoga-Weather Station Historical Data
Daily Summary for August 10, 2021 Units:  Metric    English   Both
Daily Weekly Monthly Yearly Custom
  High: Low: Average:
Temperature: -3.1 °C -7.5 °C -5.2 °C
Dew Point: -6.6 °C -10.6 °C -8.5 °C
Humidity: 87% 67% 78%
Wind Speed: 14.3km/h 0km/h 4.4km/h
Wind Gust: 22.5km/h - -
Wind- - ESE
Pressure: 1016.6 hPa 1002.0 hPa -
Precipitation: 0.0 mm    
Historical Graphs
 
 
Tabular Data for August 10, 2021
Time Temperature Dew Point Pressure Wind Wind Speed Wind Gust Humidity Rainfall Rate (Hourly) solar
00:02 -4.6 °C -6.6 °C 1003.4 hPa NNE 4.7 km/h 9.7 km/h 86% 0.0 mm 0 W/m2
00:07 -4.6 °C -6.6 °C 1003.4 hPa ESE 4.7 km/h 14.5 km/h 86% 0.0 mm 0 W/m2
00:12 -4.6 °C -6.6 °C 1003.4 hPa East 4.7 km/h 12.9 km/h 86% 0.0 mm 0 W/m2
00:17 -4.7 °C -6.7 °C 1003.4 hPa East 3.2 km/h 14.5 km/h 86% 0.0 mm 0 W/m2
00:22 -4.7 °C -6.7 °C 1003.4 hPa SE 4.7 km/h 9.7 km/h 86% 0.0 mm 0 W/m2
00:27 -4.7 °C -6.7 °C 1003.4 hPa East 3.2 km/h 9.7 km/h 86% 0.0 mm 0 W/m2
00:32 -4.7 °C -6.7 °C 1003.4 hPa NE 4.7 km/h 8 km/h 86% 0.0 mm 0 W/m2
00:37 -4.7 °C -6.7 °C 1003.4 hPa NNE 3.2 km/h 9.7 km/h 86% 0.0 mm 0 W/m2
00:42 -4.8 °C -6.8 °C 1003.0 hPa SE 6.4 km/h 9.7 km/h 86% 0.0 mm 0 W/m2
00:47 -4.8 °C -6.9 °C 1003.0 hPa East 9.7 km/h 16.1 km/h 85% 0.0 mm 0 W/m2
00:52 -4.8 °C -6.9 °C 1003.0 hPa ESE 6.4 km/h 14.5 km/h 85% 0.0 mm 0 W/m2
00:57 -4.9 °C -7 °C 1003.0 hPa ESE 6.4 km/h 12.9 km/h 85% 0.0 mm 0 W/m2
01:02 -4.9 °C -6.9 °C 1003.0 hPa ESE 13 km/h 16.1 km/h 86% 0.0 mm 0 W/m2
01:07 -4.9 °C -6.9 °C 1003.0 hPa East 9.7 km/h 14.5 km/h 86% 0.0 mm 0 W/m2
01:12 -4.9 °C -7 °C 1003.0 hPa SE 1.4 km/h 8 km/h 85% 0.0 mm 0 W/m2
01:17 -4.9 °C -6.9 °C 1003.0 hPa East 7.9 km/h 16.1 km/h 86% 0.0 mm 0 W/m2
01:22 -5 °C -7 °C 1003.0 hPa East 11.1 km/h 12.9 km/h 86% 0.0 mm 0 W/m2
01:27 -5 °C -7 °C 1003.0 hPa NE 4.7 km/h 16.1 km/h 86% 0.0 mm 0 W/m2
01:32 -4.9 °C -6.9 °C 1003.0 hPa ENE 1.4 km/h 8 km/h 86% 0.0 mm 0 W/m2
01:37 -4.9 °C -6.9 °C 1003.0 hPa ESE 4.7 km/h 11.3 km/h 86% 0.0 mm 0 W/m2
01:42 -4.9 °C -6.9 °C 1003.0 hPa ENE 1.4 km/h 9.7 km/h 86% 0.0 mm 0 W/m2
01:47 -4.9 °C -6.9 °C 1002.7 hPa ENE 3.2 km/h 6.4 km/h 86% 0.0 mm 0 W/m2
01:52 -4.9 °C -6.9 °C 1002.7 hPa East 4.7 km/h 11.3 km/h 86% 0.0 mm 0 W/m2
01:57 -4.9 °C -6.9 °C 1002.7 hPa ENE 3.2 km/h 8 km/h 86% 0.0 mm 0 W/m2
02:02 -4.9 °C -6.9 °C 1002.7 hPa ENE 1.4 km/h 6.4 km/h 86% 0.0 mm 0 W/m2
02:07 -4.9 °C -6.9 °C 1002.4 hPa ENE 6.4 km/h 11.3 km/h 86% 0.0 mm 0 W/m2
02:12 -4.9 °C -6.9 °C 1002.4 hPa ENE 6.4 km/h 11.3 km/h 86% 0.0 mm 0 W/m2
02:17 -4.9 °C -6.9 °C 1002.4 hPa SE 4.7 km/h 6.4 km/h 86% 0.0 mm 0 W/m2
02:22 -4.9 °C -6.9 °C 1002.4 hPa East 3.2 km/h 6.4 km/h 86% 0.0 mm 0 W/m2
02:27 -5 °C -7 °C 1002.4 hPa East 6.4 km/h 9.7 km/h 86% 0.0 mm 0 W/m2
02:32 -5.1 °C -7.1 °C 1002.7 hPa East 6.4 km/h 16.1 km/h 86% 0.0 mm 0 W/m2
02:37 -5.1 °C -7.1 °C 1002.4 hPa NE 3.2 km/h 6.4 km/h 86% 0.0 mm 0 W/m2
02:42 -5.1 °C -7.1 °C 1002.4 hPa ENE 4.7 km/h 11.3 km/h 86% 0.0 mm 0 W/m2
02:47 -5.2 °C -7.2 °C 1002.4 hPa SE 6.4 km/h 12.9 km/h 86% 0.0 mm 0 W/m2
02:52 -5.2 °C -7.2 °C 1002.4 hPa East 1.4 km/h 11.3 km/h 86% 0.0 mm 0 W/m2
02:57 -5.2 °C -7.2 °C 1002.4 hPa Calm   6.4 km/h 86% 0.0 mm 0 W/m2
03:02 -5.2 °C -7.2 °C 1002.4 hPa NE 3.2 km/h 4.8 km/h 86% 0.0 mm 0 W/m2
03:07 -5.2 °C -7.2 °C 1002.4 hPa East 3.2 km/h 12.9 km/h 86% 0.0 mm 0 W/m2
03:12 -5.2 °C -7 °C 1002.4 hPa ENE 3.2 km/h 9.7 km/h 87% 0.0 mm 0 W/m2
03:17 -5.2 °C -7 °C 1002.0 hPa SE 6.4 km/h 12.9 km/h 87% 0.0 mm 0 W/m2
03:23 -5.2 °C -7 °C 1002.0 hPa ENE 3.2 km/h 6.4 km/h 87% 0.0 mm 0 W/m2
03:28 -5.2 °C -7 °C 1002.0 hPa ENE 1.4 km/h 3.2 km/h 87% 0.0 mm 0 W/m2
03:33 -5.1 °C -6.9 °C 1002.0 hPa ENE 6.4 km/h 6.4 km/h 87% 0.0 mm 0 W/m2
03:38 -5.1 °C -6.9 °C 1002.0 hPa NE 1.4 km/h 12.9 km/h 87% 0.0 mm 0 W/m2
03:43 -5.2 °C -7.2 °C 1002.0 hPa ENE 6.4 km/h 12.9 km/h 86% 0.0 mm 0 W/m2
03:48 -5.2 °C -7.2 °C 1002.0 hPa East 13 km/h 12.9 km/h 86% 0.0 mm 0 W/m2
03:53 -5.2 °C -7.2 °C 1002.0 hPa SE 1.4 km/h 9.7 km/h 86% 0.0 mm 0 W/m2
03:58 -5.3 °C -7.3 °C 1002.0 hPa ENE 7.9 km/h 8 km/h 86% 0.0 mm 0 W/m2
04:03 -5.3 °C -7.3 °C 1002.0 hPa Calm   12.9 km/h 86% 0.0 mm 0 W/m2
04:08 -5.3 °C -7.3 °C 1002.0 hPa NNW 6.4 km/h 6.4 km/h 86% 0.0 mm 0 W/m2
04:13 -5.3 °C -7.4 °C 1002.0 hPa NE 3.2 km/h 9.7 km/h 85% 0.0 mm 0 W/m2
04:18 -5.3 °C -7.3 °C 1002.0 hPa North 1.4 km/h 4.8 km/h 86% 0.0 mm 0 W/m2
04:23 -5.3 °C -7.3 °C 1002.0 hPa NNW 1.4 km/h 6.4 km/h 86% 0.0 mm 0 W/m2
04:28 -5.3 °C -7.3 °C 1002.0 hPa ENE 1.4 km/h 4.8 km/h 86% 0.0 mm 0 W/m2
04:33 -5.3 °C -7.3 °C 1002.4 hPa NNE 1.4 km/h 3.2 km/h 86% 0.0 mm 0 W/m2
04:38 -5.4 °C -7.4 °C 1002.4 hPa NNE 3.2 km/h 9.7 km/h 86% 0.0 mm 0 W/m2
04:43 -5.4 °C -7.4 °C 1002.4 hPa ENE 3.2 km/h 14.5 km/h 86% 0.0 mm 0 W/m2
04:48 -5.5 °C -7.6 °C 1002.7 hPa NNW 3.2 km/h 12.9 km/h 85% 0.0 mm 0 W/m2
04:53 -5.6 °C -7.7 °C 1002.7 hPa WNW 9.7 km/h 11.3 km/h 85% 0.0 mm 0 W/m2
04:58 -5.6 °C -7.9 °C 1002.7 hPa North 4.7 km/h 14.5 km/h 84% 0.0 mm 0 W/m2
05:03 -5.7 °C -8 °C 1002.7 hPa NE 4.7 km/h 9.7 km/h 84% 0.0 mm 0 W/m2
05:08 -5.7 °C -8 °C 1002.7 hPa ENE 13 km/h 14.5 km/h 84% 0.0 mm 0 W/m2
05:13 -5.8 °C -8.1 °C 1002.7 hPa Calm   4.8 km/h 84% 0.0 mm 0 W/m2
05:18 -5.8 °C -8.1 °C 1002.7 hPa East 4.7 km/h 8 km/h 84% 0.0 mm 0 W/m2
05:23 -5.9 °C -8.3 °C 1002.7 hPa NNE 1.4 km/h 9.7 km/h 83% 0.0 mm 0 W/m2
05:28 -5.9 °C -8.3 °C 1002.7 hPa Calm   9.7 km/h 83% 0.0 mm 0 W/m2
05:33 -5.9 °C -8.3 °C 1002.7 hPa East 7.9 km/h 14.5 km/h 83% 0.0 mm 0 W/m2
05:38 -6 °C -8.4 °C 1002.7 hPa NNE 4.7 km/h 4.8 km/h 83% 0.0 mm 0 W/m2
05:43 -6 °C -8.4 °C 1002.7 hPa North 6.4 km/h 14.5 km/h 83% 0.0 mm 0 W/m2
05:48 -6.1 °C -8.5 °C 1002.7 hPa ENE 1.4 km/h 12.9 km/h 83% 0.0 mm 0 W/m2
05:53 -6.1 °C -8.5 °C 1003.0 hPa SE 1.4 km/h 6.4 km/h 83% 0.0 mm 0 W/m2
05:58 -6.1 °C -8.5 °C 1003.0 hPa NNW 7.9 km/h 12.9 km/h 83% 0.0 mm 0 W/m2
06:03 -6.2 °C -8.6 °C 1003.0 hPa North 4.7 km/h 9.7 km/h 83% 0.0 mm 0 W/m2
06:08 -6.3 °C -8.9 °C 1003.0 hPa NNW 4.7 km/h 6.4 km/h 82% 0.0 mm 0 W/m2
06:13 -6.4 °C -9 °C 1003.0 hPa East 3.2 km/h 9.7 km/h 82% 0.0 mm 0 W/m2
06:18 -6.4 °C -9 °C 1003.0 hPa East 11.1 km/h 11.3 km/h 82% 0.0 mm 0 W/m2
06:23 -6.5 °C -9.2 °C 1003.0 hPa SSE 7.9 km/h   81% 0.0 mm 0 W/m2
06:28 -6.6 °C -9.2 °C 1003.0 hPa SE 3.2 km/h 11.3 km/h 82% 0.0 mm 0 W/m2
06:33 -6.7 °C -9.3 °C 1003.0 hPa NE 3.2 km/h 14.5 km/h 82% 0.0 mm 0 W/m2
06:38 -6.7 °C -9.3 °C 1003.4 hPa WNW 3.2 km/h 9.7 km/h 82% 0.0 mm 0 W/m2
06:43 -6.7 °C -9.3 °C 1003.4 hPa East 4.7 km/h 14.5 km/h 82% 0.0 mm 0 W/m2
06:48 -6.7 °C -9.3 °C 1003.4 hPa North 3.2 km/h 8 km/h 82% 0.0 mm 0 W/m2
06:53 -6.7 °C -9.1 °C 1003.4 hPa NNW 6.4 km/h 14.5 km/h 83% 0.0 mm 0 W/m2
06:59 -6.7 °C -9.3 °C 1003.4 hPa East 4.7 km/h 12.9 km/h 82% 0.0 mm 0 W/m2
07:04 -6.8 °C -9.4 °C 1003.7 hPa NNE 4.7 km/h 11.3 km/h 82% 0.0 mm 0 W/m2
07:09 -6.9 °C -9.5 °C 1003.7 hPa ESE 9.7 km/h 9.7 km/h 82% 0.0 mm 0 W/m2
07:14 -7.1 °C -9.6 °C 1003.7 hPa NE 4.7 km/h 11.3 km/h 82% 0.0 mm 0 W/m2
07:19 -7.2 °C -9.7 °C 1003.7 hPa East 1.4 km/h 4.8 km/h 82% 0.0 mm 0 W/m2
07:24 -7.2 °C -9.7 °C 1003.7 hPa NNE 4.7 km/h 6.4 km/h 82% 0.0 mm 0 W/m2
07:43 -7.2 °C -9.7 °C 1004.1 hPa North 3.2 km/h 11.3 km/h 82% 0.0 mm 0 W/m2
07:48 -7.3 °C -9.7 °C 1004.1 hPa Calm   3.2 km/h 83% 0.0 mm 0 W/m2
07:53 -7.3 °C -9.8 °C 1004.1 hPa NNW 1.4 km/h 6.4 km/h 82% 0.0 mm 0 W/m2
07:58 -7.3 °C -9.8 °C 1004.1 hPa NE 6.4 km/h 22.5 km/h 82% 0.0 mm 0 W/m2
08:03 -7.3 °C -9.8 °C 1004.4 hPa North 3.2 km/h 17.7 km/h 82% 0.0 mm 0 W/m2
08:08 -7.4 °C -9.9 °C 1004.4 hPa NE 1.4 km/h 22.5 km/h 82% 0.0 mm 0 W/m2
08:27 -7.4 °C -9.9 °C 1004.7 hPa North 6.4 km/h 8 km/h 82% 0.0 mm 11 W/m2
08:32 -7.4 °C -10.1 °C 1004.7 hPa ENE 7.9 km/h 9.7 km/h 81% 0.0 mm 14 W/m2
08:37 -7.5 °C -10.2 °C 1004.7 hPa NNW 4.7 km/h 6.4 km/h 81% 0.0 mm 18 W/m2
08:42 -7.4 °C -10.1 °C 1005.1 hPa ENE 3.2 km/h 8 km/h 81% 0.0 mm 21 W/m2
08:51 -7.4 °C -10.1 °C 1005.1 hPa NNE 4.7 km/h 12.9 km/h 81% 0.0 mm 26 W/m2
08:56 -7.4 °C -10.1 °C 1005.4 hPa SSE 3.2 km/h 6.4 km/h 81% 0.0 mm 28 W/m2
09:01 -7.4 °C -10.1 °C 1005.4 hPa East 1.4 km/h 8 km/h 81% 0.0 mm 30 W/m2
09:06 -7.4 °C -10.3 °C 1005.4 hPa SW 1.4 km/h 8 km/h 80% 0.0 mm 33 W/m2
09:11 -7.4 °C -10.3 °C 1005.4 hPa NW 6.4 km/h 8 km/h 80% 0.0 mm 32 W/m2
09:16 -7.4 °C -10.3 °C 1005.8 hPa East 11.1 km/h 11.3 km/h 80% 0.0 mm 32 W/m2
09:21 -7.5 °C -10.5 °C 1005.8 hPa NNW 9.7 km/h 17.7 km/h 79% 0.0 mm 35 W/m2
09:26 -7.5 °C -10.5 °C 1005.8 hPa SW 4.7 km/h 12.9 km/h 79% 0.0 mm 37 W/m2
09:31 -7.5 °C -10.5 °C 1005.8 hPa ENE 4.7 km/h 17.7 km/h 79% 0.0 mm 40 W/m2
09:36 -7.4 °C -10.4 °C 1005.8 hPa WNW 1.4 km/h 3.2 km/h 79% 0.0 mm 44 W/m2
09:41 -7.4 °C -10.4 °C 1005.8 hPa NNE 6.4 km/h 11.3 km/h 79% 0.0 mm 47 W/m2
09:46 -7.4 °C -10.6 °C 1005.8 hPa NNE 7.9 km/h 12.9 km/h 78% 0.0 mm 49 W/m2
09:52 -7.4 °C -10.6 °C 1006.1 hPa NE 3.2 km/h 11.3 km/h 78% 0.0 mm 53 W/m2
09:57 -7.4 °C -10.6 °C 1006.1 hPa NNW 6.4 km/h 12.9 km/h 78% 0.0 mm 60 W/m2
10:02 -7.4 °C -10.6 °C 1006.1 hPa ENE 4.7 km/h 8 km/h 78% 0.0 mm 67 W/m2
10:07 -7.3 °C -10.3 °C 1006.4 hPa East 3.2 km/h 14.5 km/h 79% 0.0 mm 72 W/m2
10:12 -7.2 °C -10.2 °C 1006.4 hPa ESE 11.1 km/h 12.9 km/h 79% 0.0 mm 81 W/m2
10:17 -7.2 °C -10.2 °C 1006.4 hPa ENE 3.2 km/h 4.8 km/h 79% 0.0 mm 88 W/m2
10:22 -7.1 °C -10.1 °C 1006.4 hPa NNE 1.4 km/h 11.3 km/h 79% 0.0 mm 88 W/m2
10:27 -7.1 °C -10.1 °C 1006.8 hPa NW 1.4 km/h 12.9 km/h 79% 0.0 mm 83 W/m2
10:32 -7 °C -10.2 °C 1006.8 hPa ENE 3.2 km/h 12.9 km/h 78% 0.0 mm 81 W/m2
10:37 -7.1 °C -10.4 °C 1006.8 hPa ENE 3.2 km/h 16.1 km/h 77% 0.0 mm 81 W/m2
10:42 -7.1 °C -10.4 °C 1007.1 hPa SE 9.7 km/h 17.7 km/h 77% 0.0 mm 74 W/m2
10:47 -7.1 °C -10.4 °C 1007.1 hPa NNE 3.2 km/h 20.9 km/h 77% 0.0 mm 69 W/m2
10:52 -7.2 °C -10.5 °C 1007.1 hPa NE 9.7 km/h 19.3 km/h 77% 0.0 mm 70 W/m2
10:57 -7.1 °C -10.4 °C 1007.5 hPa East 7.9 km/h 20.9 km/h 77% 0.0 mm 72 W/m2
11:02 -7.1 °C -10.4 °C 1007.5 hPa NE 9.7 km/h 9.7 km/h 77% 0.0 mm 79 W/m2
11:07 -7.1 °C -10.4 °C 1007.5 hPa ENE 3.2 km/h 17.7 km/h 77% 0.0 mm 86 W/m2
11:12 -6.9 °C -10.1 °C 1007.5 hPa NNW 9.7 km/h 11.3 km/h 78% 0.0 mm 97 W/m2
11:17 -6.9 °C -10.2 °C 1007.5 hPa NE 3.2 km/h 11.3 km/h 77% 0.0 mm 104 W/m2
11:22 -6.9 °C -10.4 °C 1007.5 hPa East 3.2 km/h 14.5 km/h 76% 0.0 mm 121 W/m2
11:27 -6.8 °C -10.3 °C 1007.8 hPa NNE 6.4 km/h 8 km/h 76% 0.0 mm 127 W/m2
11:32 -6.7 °C -10.2 °C 1007.8 hPa ENE 14.3 km/h 14.5 km/h 76% 0.0 mm 158 W/m2
11:37 -6.7 °C -10.2 °C 1008.1 hPa WNW 1.4 km/h 8 km/h 76% 0.0 mm 160 W/m2
11:42 -6.6 °C -10.1 °C 1008.1 hPa West 9.7 km/h 22.5 km/h 76% 0.0 mm 137 W/m2
11:47 -6.4 °C -9.9 °C 1008.1 hPa ENE 7.9 km/h 14.5 km/h 76% 0.0 mm 128 W/m2
11:52 -6.3 °C -9.8 °C 1008.1 hPa ENE 3.2 km/h 22.5 km/h 76% 0.0 mm 107 W/m2
11:57 -6.2 °C -9.7 °C 1008.1 hPa ENE 6.4 km/h 6.4 km/h 76% 0.0 mm 93 W/m2
12:02 -6.2 °C -9.9 °C 1008.1 hPa Calm   4.8 km/h 75% 0.0 mm 109 W/m2
12:07 -6.2 °C -9.7 °C 1008.1 hPa East 4.7 km/h 8 km/h 76% 0.0 mm 132 W/m2
12:12 -6.1 °C -9.6 °C 1008.5 hPa NNW 13 km/h 14.5 km/h 76% 0.0 mm 125 W/m2
12:17 -6.1 °C -9.8 °C 1008.5 hPa Calm   9.7 km/h 75% 0.0 mm 123 W/m2
12:22 -6 °C -9.7 °C 1008.5 hPa ENE 7.9 km/h 11.3 km/h 75% 0.0 mm 127 W/m2
12:27 -5.9 °C -9.6 °C 1008.5 hPa NW 13 km/h 12.9 km/h 75% 0.0 mm 135 W/m2
12:32 -5.8 °C -9.5 °C 1008.5 hPa West 1.4 km/h 6.4 km/h 75% 0.0 mm 142 W/m2
12:37 -5.7 °C -9.4 °C 1008.5 hPa NE 9.7 km/h 17.7 km/h 75% 0.0 mm 151 W/m2
12:42 -5.7 °C -9.6 °C 1008.8 hPa NE 6.4 km/h 9.7 km/h 74% 0.0 mm 155 W/m2
12:47 -5.6 °C -9.5 °C 1008.5 hPa NNW 6.4 km/h 6.4 km/h 74% 0.0 mm 156 W/m2
12:52 -5.5 °C -9.4 °C 1008.8 hPa NNW 3.2 km/h 14.5 km/h 74% 0.0 mm 162 W/m2
12:57 -5.3 °C -9 °C 1008.8 hPa ENE 4.7 km/h 6.4 km/h 75% 0.0 mm 165 W/m2
13:02 -5.2 °C -9.1 °C 1008.8 hPa ENE 6.4 km/h 19.3 km/h 74% 0.0 mm 172 W/m2
13:07 -5.2 °C -9.1 °C 1008.8 hPa ENE 7.9 km/h 17.7 km/h 74% 0.0 mm 186 W/m2
13:12 -5.1 °C -9.2 °C 1008.8 hPa East 6.4 km/h 16.1 km/h 73% 0.0 mm 179 W/m2
13:17 -5 °C -8.9 °C 1008.8 hPa East 4.7 km/h 17.7 km/h 74% 0.0 mm 183 W/m2
13:22 -4.9 °C -9 °C 1009.1 hPa NE 4.7 km/h 12.9 km/h 73% 0.0 mm 192 W/m2
13:27 -4.9 °C -8.8 °C 1009.1 hPa ENE 4.7 km/h 9.7 km/h 74% 0.0 mm 181 W/m2
13:32 -4.8 °C -8.7 °C 1009.1 hPa East 4.7 km/h 9.7 km/h 74% 0.0 mm 172 W/m2
13:37 -4.7 °C -8.8 °C 1009.1 hPa ENE 1.4 km/h 14.5 km/h 73% 0.0 mm 178 W/m2
13:42 -4.6 °C -8.7 °C 1009.5 hPa East 1.4 km/h 4.8 km/h 73% 0.0 mm 185 W/m2
13:47 -4.6 °C -8.7 °C 1009.5 hPa East 11.1 km/h 11.3 km/h 73% 0.0 mm 178 W/m2
13:52 -4.4 °C -8.3 °C 1009.5 hPa NNW 4.7 km/h 6.4 km/h 74% 0.0 mm 181 W/m2
13:57 -4.4 °C -8.5 °C 1009.5 hPa NNE 11.1 km/h 11.3 km/h 73% 0.0 mm 171 W/m2
14:02 -4.3 °C -8.4 °C 1009.5 hPa NE 4.7 km/h 6.4 km/h 73% 0.0 mm 151 W/m2
14:07 -4.3 °C -8.6 °C 1009.5 hPa ESE 4.7 km/h 9.7 km/h 72% 0.0 mm 144 W/m2
14:12 -4.3 °C -8.6 °C 1009.8 hPa ESE 3.2 km/h 12.9 km/h 72% 0.0 mm 128 W/m2
14:17 -4.2 °C -8.5 °C 1009.5 hPa NE 4.7 km/h 12.9 km/h 72% 0.0 mm 88 W/m2
14:22 -4.2 °C -8.5 °C 1009.8 hPa WSW 4.7 km/h 9.7 km/h 72% 0.0 mm 111 W/m2
14:27 -4 °C -8.3 °C 1009.8 hPa East 3.2 km/h 9.7 km/h 72% 0.0 mm 79 W/m2
14:32 -3.8 °C -8.3 °C 1009.8 hPa ENE 1.4 km/h 12.9 km/h 71% 0.0 mm 95 W/m2
14:37 -3.8 °C -8.3 °C 1010.2 hPa NE 11.1 km/h 14.5 km/h 71% 0.0 mm 76 W/m2
14:42 -3.6 °C -7.9 °C 1010.2 hPa East 1.4 km/h 8 km/h 72% 0.0 mm 60 W/m2
14:47 -3.6 °C -8.3 °C 1010.2 hPa NNW 4.7 km/h 8 km/h 70% 0.0 mm 65 W/m2
14:52 -3.6 °C -8.3 °C 1010.2 hPa East 3.2 km/h 12.9 km/h 70% 0.0 mm 63 W/m2
14:57 -3.5 °C -8 °C 1010.2 hPa NE 7.9 km/h 9.7 km/h 71% 0.0 mm 81 W/m2
15:02 -3.3 °C -7.8 °C 1010.5 hPa North 6.4 km/h 12.9 km/h 71% 0.0 mm 63 W/m2
15:07 -3.3 °C -8 °C 1010.5 hPa ESE 1.4 km/h 12.9 km/h 70% 0.0 mm 65 W/m2
15:12 -3.3 °C -8.2 °C 1010.8 hPa North 14.3 km/h 20.9 km/h 69% 0.0 mm 84 W/m2
15:17 -3.3 °C -8.2 °C 1010.8 hPa ENE 3.2 km/h 9.7 km/h 69% 0.0 mm 60 W/m2
15:22 -3.3 °C -8.2 °C 1010.8 hPa NNE 6.4 km/h 20.9 km/h 69% 0.0 mm 54 W/m2
15:27 -3.3 °C -8.2 °C 1010.8 hPa East 3.2 km/h 6.4 km/h 69% 0.0 mm 86 W/m2
15:32 -3.3 °C -8.2 °C 1010.8 hPa North 9.7 km/h 22.5 km/h 69% 0.0 mm 91 W/m2
15:37 -3.2 °C -8.1 °C 1011.2 hPa ESE 11.1 km/h 11.3 km/h 69% 0.0 mm 65 W/m2
15:42 -3.1 °C -8 °C 1011.2 hPa NNW 6.4 km/h 22.5 km/h 69% 0.0 mm 63 W/m2
15:47 -3.1 °C -8 °C 1011.2 hPa NW 9.7 km/h 16.1 km/h 69% 0.0 mm 67 W/m2
15:52 -3.1 °C -8.4 °C 1011.2 hPa NNE 4.7 km/h 19.3 km/h 67% 0.0 mm 83 W/m2
15:57 -3.2 °C -8.3 °C 1011.5 hPa ESE 3.2 km/h 9.7 km/h 68% 0.0 mm 79 W/m2
16:02 -3.2 °C -8.3 °C 1011.5 hPa SE 1.4 km/h 9.7 km/h 68% 0.0 mm 65 W/m2
16:07 -3.2 °C -8.3 °C 1011.5 hPa NE 3.2 km/h 6.4 km/h 68% 0.0 mm 62 W/m2
16:12 -3.3 °C -8.4 °C 1011.9 hPa South 3.2 km/h 11.3 km/h 68% 0.0 mm 76 W/m2
16:17 -3.3 °C -8.4 °C 1011.9 hPa NNE 3.2 km/h 14.5 km/h 68% 0.0 mm 69 W/m2
16:22 -3.3 °C -8.4 °C 1011.9 hPa NE 4.7 km/h 11.3 km/h 68% 0.0 mm 56 W/m2
16:27 -3.3 °C -8.4 °C 1012.2 hPa Calm   6.4 km/h 68% 0.0 mm 42 W/m2
16:32 -3.3 °C -8.4 °C 1012.2 hPa East 3.2 km/h 6.4 km/h 68% 0.0 mm 35 W/m2
16:37 -3.4 °C -8.5 °C 1012.2 hPa East 6.4 km/h 12.9 km/h 68% 0.0 mm 33 W/m2
16:42 -3.4 °C -8.5 °C 1012.2 hPa East 3.2 km/h 8 km/h 68% 0.0 mm 33 W/m2
16:47 -3.4 °C -8.6 °C 1012.5 hPa ENE 1.4 km/h 8 km/h 67% 0.0 mm 33 W/m2
16:52 -3.4 °C -8.5 °C 1012.5 hPa East 3.2 km/h 8 km/h 68% 0.0 mm 33 W/m2
16:57 -3.4 °C -8.5 °C 1012.5 hPa East 4.7 km/h 8 km/h 68% 0.0 mm 30 W/m2
17:02 -3.3 °C -8.2 °C 1012.9 hPa NNE 6.4 km/h 11.3 km/h 69% 0.0 mm 25 W/m2
17:07 -3.3 °C -8.2 °C 1012.9 hPa East 4.7 km/h 9.7 km/h 69% 0.0 mm 26 W/m2
17:12 -3.4 °C -8.5 °C 1013.2 hPa NW 6.4 km/h 8 km/h 68% 0.0 mm 18 W/m2
17:17 -3.4 °C -8.3 °C 1013.2 hPa NE 1.4 km/h 4.8 km/h 69% 0.0 mm 18 W/m2
17:22 -3.4 °C -8.3 °C 1013.2 hPa ENE 1.4 km/h 6.4 km/h 69% 0.0 mm 16 W/m2
17:27 -3.4 °C -8.3 °C 1013.5 hPa East 1.4 km/h 4.8 km/h 69% 0.0 mm 12 W/m2
17:32 -3.5 °C -8.2 °C 1013.5 hPa NNE 3.2 km/h 6.4 km/h 70% 0.0 mm 11 W/m2
17:37 -3.5 °C -8.2 °C 1013.5 hPa ESE 4.7 km/h 6.4 km/h 70% 0.0 mm 9 W/m2
17:42 -3.5 °C -8.2 °C 1013.5 hPa ENE 3.2 km/h 6.4 km/h 70% 0.0 mm 5 W/m2
17:47 -3.6 °C -8.3 °C 1013.9 hPa Calm   4.8 km/h 70% 0.0 mm 5 W/m2
17:52 -3.6 °C -8.1 °C 1013.9 hPa Calm   3.2 km/h 71% 0.0 mm 0 W/m2
17:57 -3.6 °C -8.3 °C 1013.9 hPa ENE 7.9 km/h 12.9 km/h 70% 0.0 mm 0 W/m2
18:02 -3.7 °C -8.4 °C 1013.9 hPa East 3.2 km/h 3.2 km/h 70% 0.0 mm 0 W/m2
18:08 -3.7 °C -8.4 °C 1014.2 hPa ENE 6.4 km/h 12.9 km/h 70% 0.0 mm 0 W/m2
18:13 -3.7 °C -8.4 °C 1014.2 hPa NE 3.2 km/h 8 km/h 70% 0.0 mm 0 W/m2
18:18 -3.7 °C -8.2 °C 1014.6 hPa Calm   12.9 km/h 71% 0.0 mm 0 W/m2
18:23 -3.8 °C -8.3 °C 1014.6 hPa East 1.4 km/h 4.8 km/h 71% 0.0 mm 0 W/m2
18:28 -3.8 °C -8.1 °C 1014.6 hPa ENE 6.4 km/h 6.4 km/h 72% 0.0 mm 0 W/m2
18:33 -3.8 °C -8.1 °C 1014.6 hPa Calm   4.8 km/h 72% 0.0 mm 0 W/m2
18:38 -3.8 °C -8.1 °C 1014.9 hPa ENE 1.4 km/h 1.6 km/h 72% 0.0 mm 0 W/m2
18:43 -3.8 °C -8.1 °C 1014.9 hPa Calm   1.6 km/h 72% 0.0 mm 0 W/m2
18:48 -3.9 °C -8 °C 1014.9 hPa NE 3.2 km/h 3.2 km/h 73% 0.0 mm 0 W/m2
18:53 -3.9 °C -8 °C 1015.2 hPa North 1.4 km/h 4.8 km/h 73% 0.0 mm 0 W/m2
18:58 -4 °C -8.1 °C 1015.2 hPa Calm   3.2 km/h 73% 0.0 mm 0 W/m2
19:03 -4 °C -8.1 °C 1015.2 hPa NE 1.4 km/h 3.2 km/h 73% 0.0 mm 0 W/m2
19:08 -4 °C -8.1 °C 1015.2 hPa NE 1.4 km/h 3.2 km/h 73% 0.0 mm 0 W/m2
19:13 -4.1 °C -8 °C 1015.2 hPa Calm   3.2 km/h 74% 0.0 mm 0 W/m2
19:18 -4 °C -7.9 °C 1015.2 hPa SSE 3.2 km/h 8 km/h 74% 0.0 mm 0 W/m2
19:23 -4 °C -7.9 °C 1015.2 hPa NNE 1.4 km/h 6.4 km/h 74% 0.0 mm 0 W/m2
19:28 -4 °C -7.9 °C 1015.6 hPa Calm   1.6 km/h 74% 0.0 mm 0 W/m2
19:33 -4.1 °C -8 °C 1015.6 hPa East 1.4 km/h 3.2 km/h 74% 0.0 mm 0 W/m2
19:38 -4.1 °C -7.9 °C 1015.6 hPa Calm   3.2 km/h 75% 0.0 mm 0 W/m2
19:43 -4.2 °C -8 °C 1015.9 hPa Calm   1.6 km/h 75% 0.0 mm 0 W/m2
19:48 -4.3 °C -7.9 °C 1015.9 hPa Calm     76% 0.0 mm 0 W/m2
19:53 -4.5 °C -7.9 °C 1015.9 hPa Calm   3.2 km/h 77% 0.0 mm 0 W/m2
19:58 -4.6 °C -8 °C 1016.3 hPa Calm     77% 0.0 mm 0 W/m2
20:03 -4.7 °C -7.9 °C 1016.3 hPa Calm   3.2 km/h 78% 0.0 mm 0 W/m2
20:08 -4.8 °C -7.9 °C 1016.3 hPa ESE 1.4 km/h 1.6 km/h 79% 0.0 mm 0 W/m2
20:13 -5 °C -8.1 °C 1016.3 hPa Calm   1.6 km/h 79% 0.0 mm 0 W/m2
20:18 -5.1 °C -8 °C 1016.3 hPa Calm   1.6 km/h 80% 0.0 mm 0 W/m2
20:23 -5.2 °C -8.1 °C 1016.6 hPa ESE 1.4 km/h 1.6 km/h 80% 0.0 mm 0 W/m2
20:28 -5.2 °C -7.9 °C 1016.6 hPa Calm   1.6 km/h 81% 0.0 mm 0 W/m2
20:33 -5.2 °C -7.9 °C 1016.6 hPa Calm   3.2 km/h 81% 0.0 mm 0 W/m2
Juneau County Weather
Compliments of Weather Underground - 4 mb